createdAt,value
2023-05-18T00:01:16.294Z,2.70
2023-05-18T00:03:49.326Z,2.80
2023-05-18T00:06:26.644Z,2.23
2023-05-18T00:08:59.501Z,2.30
2023-05-18T00:11:35.078Z,2.10
2023-05-18T00:14:09.549Z,2.30
2023-05-18T00:16:42.470Z,2.77
2023-05-18T00:19:16.651Z,2.63
2023-05-18T00:21:50.699Z,2.77
2023-05-18T00:24:35.011Z,2.30
2023-05-18T00:27:07.559Z,2.73
2023-05-18T00:29:40.533Z,2.20
2023-05-18T00:32:13.683Z,3.37
2023-05-18T00:34:46.994Z,2.80
2023-05-18T00:37:19.722Z,2.53
2023-05-18T00:39:52.636Z,2.10
2023-05-18T00:42:25.681Z,2.13
2023-05-18T00:44:58.535Z,2.57
2023-05-18T00:47:31.445Z,2.60
2023-05-18T00:50:11.637Z,1.97
2023-05-18T00:52:45.003Z,2.47
2023-05-18T00:55:18.646Z,2.83
2023-05-18T00:57:53.916Z,2.20
2023-05-18T01:00:26.919Z,2.40
2023-05-18T01:02:59.875Z,2.47
2023-05-18T01:05:33.162Z,2.90
2023-05-18T01:08:06.171Z,2.40
2023-05-18T01:10:40.918Z,2.33
2023-05-18T01:13:15.617Z,2.70
2023-05-18T01:15:50.285Z,2.23
2023-05-18T01:18:25.483Z,2.10
2023-05-18T01:21:15.804Z,2.20
2023-05-18T01:23:56.973Z,2.00
2023-05-18T01:26:34.906Z,2.30
2023-05-18T01:29:09.955Z,2.60
2023-05-18T01:31:42.954Z,2.40
2023-05-18T01:34:16.245Z,2.20
2023-05-18T01:36:49.379Z,2.30
2023-05-18T01:39:22.399Z,2.53
2023-05-18T01:42:03.600Z,2.53
2023-05-18T01:44:44.258Z,2.40
2023-05-18T01:47:18.611Z,2.37
2023-05-18T01:49:53.184Z,2.40
2023-05-18T01:52:36.651Z,2.30
2023-05-18T01:55:11.069Z,2.70
2023-05-18T01:57:49.260Z,2.50
2023-05-18T02:00:22.665Z,2.57
2023-05-18T02:02:55.703Z,2.30
2023-05-18T02:05:29.047Z,2.17
2023-05-18T02:08:02.166Z,2.10
2023-05-18T02:10:35.212Z,2.30
2023-05-18T02:13:08.294Z,2.53
2023-05-18T02:15:44.289Z,2.83
2023-05-18T02:18:18.343Z,2.13
2023-05-18T02:20:51.291Z,2.40
2023-05-18T02:23:24.007Z,2.40
2023-05-18T02:25:58.110Z,2.50
2023-05-18T02:28:31.055Z,2.70
2023-05-18T02:31:13.928Z,2.47
2023-05-18T02:33:47.137Z,2.30
2023-05-18T02:36:20.408Z,2.00
2023-05-18T02:38:53.926Z,2.20
2023-05-18T02:41:26.881Z,2.33
2023-05-18T02:43:59.816Z,2.00
2023-05-18T02:46:32.764Z,2.20
2023-05-18T02:49:05.617Z,2.13
2023-05-18T02:51:38.728Z,3.23
2023-05-18T02:54:13.519Z,2.10
2023-05-18T02:56:45.619Z,2.60
2023-05-18T02:59:18.519Z,2.30
2023-05-18T03:01:51.458Z,2.43
2023-05-18T03:04:26.179Z,2.33
2023-05-18T03:06:59.140Z,2.50
2023-05-18T03:09:32.125Z,3.03
2023-05-18T03:12:05.005Z,2.27
2023-05-18T03:14:37.908Z,2.87
2023-05-18T03:17:10.922Z,3.07
2023-05-18T03:19:44.118Z,2.57
2023-05-18T03:22:16.850Z,2.47
2023-05-18T03:24:50.876Z,2.70
2023-05-18T03:27:24.848Z,6.40
2023-05-18T03:29:58.881Z,2.37
2023-05-18T03:32:33.254Z,2.37
2023-05-18T03:35:06.796Z,2.30
2023-05-18T03:37:39.551Z,2.33
2023-05-18T03:40:17.247Z,2.60
2023-05-18T03:42:50.203Z,2.30
2023-05-18T03:45:23.104Z,2.10
2023-05-18T03:47:56.026Z,2.00
2023-05-18T03:50:29.084Z,2.10
2023-05-18T03:53:02.027Z,1.90
2023-05-18T03:55:34.955Z,3.47
2023-05-18T03:58:07.880Z,2.40
2023-05-18T04:00:40.732Z,2.23
2023-05-18T04:03:17.622Z,2.50
2023-05-18T04:05:51.833Z,2.53
2023-05-18T04:08:26.274Z,2.03
2023-05-18T04:10:59.221Z,2.23
2023-05-18T04:13:32.151Z,2.40
2023-05-18T04:16:05.533Z,2.40
2023-05-18T04:18:38.478Z,2.13
2023-05-18T04:21:11.557Z,3.03
2023-05-18T04:23:44.421Z,2.30
2023-05-18T04:26:19.088Z,3.23
2023-05-18T04:28:52.022Z,2.23
2023-05-18T04:31:25.947Z,2.30
2023-05-18T04:35:29.064Z,2.10
2023-05-18T04:36:39.490Z,2.53
2023-05-18T04:39:13.359Z,2.00
2023-05-18T04:41:48.048Z,2.23
2023-05-18T04:44:22.004Z,2.70
2023-05-18T04:46:56.259Z,2.00
2023-05-18T04:49:30.169Z,2.40
2023-05-18T04:52:03.246Z,2.67
2023-05-18T04:54:36.343Z,2.30
2023-05-18T04:57:09.241Z,3.60
2023-05-18T04:59:43.288Z,2.10
2023-05-18T05:02:16.496Z,2.27
2023-05-18T05:04:49.471Z,2.20
2023-05-18T05:07:23.119Z,2.30
2023-05-18T05:09:56.088Z,2.07
2023-05-18T05:12:33.263Z,2.03
2023-05-18T05:15:06.146Z,2.73
2023-05-18T05:17:43.992Z,2.30
2023-05-18T05:20:16.822Z,2.27
2023-05-18T05:22:53.515Z,2.23
2023-05-18T05:25:26.480Z,2.30
2023-05-18T05:27:59.542Z,2.10
2023-05-18T05:30:32.433Z,2.80
2023-05-18T05:33:05.761Z,2.20
2023-05-18T05:35:39.422Z,2.10
2023-05-18T05:38:12.804Z,3.27
2023-05-18T05:40:45.727Z,2.30
2023-05-18T05:43:18.738Z,3.03
2023-05-18T05:45:52.093Z,2.70
2023-05-18T05:48:25.408Z,2.90
2023-05-18T05:50:58.359Z,2.47
2023-05-18T05:53:31.717Z,2.60
2023-05-18T05:56:04.582Z,4.00
2023-05-18T05:58:37.434Z,3.00
2023-05-18T06:01:13.188Z,2.70
2023-05-18T06:03:47.275Z,2.10
2023-05-18T06:06:20.312Z,3.10
2023-05-18T06:08:53.268Z,2.30
2023-05-18T06:11:26.011Z,2.37
2023-05-18T06:13:59.092Z,2.60
2023-05-18T06:16:32.148Z,2.20
2023-05-18T06:19:05.475Z,2.37
2023-05-18T06:21:38.332Z,2.90
2023-05-18T06:24:11.881Z,2.57
2023-05-18T06:26:45.113Z,3.20
2023-05-18T06:29:18.130Z,2.50
2023-05-18T06:31:51.288Z,2.33
2023-05-18T06:34:24.286Z,2.80
2023-05-18T06:36:57.965Z,2.80
2023-05-18T06:39:31.781Z,2.40
2023-05-18T06:42:04.654Z,3.20
2023-05-18T06:44:37.894Z,3.17
2023-05-18T06:47:15.691Z,2.50
2023-05-18T06:49:48.777Z,3.30
2023-05-18T06:52:21.715Z,2.47
2023-05-18T06:54:54.922Z,2.73
2023-05-18T06:57:27.766Z,2.50
2023-05-18T07:00:00.688Z,2.90
2023-05-18T07:02:33.625Z,3.00
2023-05-18T07:05:07.974Z,3.27
2023-05-18T07:07:41.017Z,2.77
2023-05-18T07:10:14.673Z,2.97
2023-05-18T07:12:47.656Z,2.60
2023-05-18T07:15:20.698Z,3.43
2023-05-18T07:17:53.678Z,2.60
2023-05-18T07:20:26.700Z,4.23
2023-05-18T07:22:59.739Z,2.40
2023-05-18T07:25:32.973Z,2.47
2023-05-18T07:28:05.965Z,2.93
2023-05-18T07:30:38.931Z,2.50
2023-05-18T07:33:11.745Z,2.40
2023-05-18T07:35:44.575Z,2.73
2023-05-18T07:38:17.515Z,4.53
2023-05-18T07:40:50.917Z,3.03
2023-05-18T07:43:24.121Z,2.77
2023-05-18T07:45:57.007Z,3.40
2023-05-18T07:48:30.060Z,3.00
2023-05-18T07:51:02.688Z,2.40
2023-05-18T07:53:36.622Z,2.60
2023-05-18T07:56:10.450Z,3.40
2023-05-18T07:58:43.859Z,3.60
2023-05-18T08:01:16.711Z,2.30
2023-05-18T08:03:49.970Z,2.87
2023-05-18T08:06:27.383Z,2.63
2023-05-18T08:09:00.573Z,2.93
2023-05-18T08:11:33.466Z,2.47
2023-05-18T08:14:06.172Z,2.97
2023-05-18T08:16:39.469Z,3.47
2023-05-18T08:19:12.424Z,3.63
2023-05-18T08:21:45.443Z,4.00
2023-05-18T08:24:18.674Z,3.00
2023-05-18T08:26:51.644Z,3.57
2023-05-18T08:29:24.599Z,3.00
2023-05-18T08:31:57.684Z,2.73
2023-05-18T08:34:31.979Z,2.73
2023-05-18T08:37:04.966Z,4.73
2023-05-18T08:39:39.833Z,2.80
2023-05-18T08:42:37.790Z,3.37
2023-05-18T08:45:25.604Z,4.27
2023-05-18T08:48:02.953Z,2.80
2023-05-18T08:50:37.245Z,4.00
2023-05-18T08:53:10.629Z,3.83
2023-05-18T08:55:45.740Z,5.03
2023-05-18T08:58:24.458Z,3.10
2023-05-18T09:01:01.954Z,2.50
2023-05-18T09:03:35.901Z,3.63
2023-05-18T09:06:10.374Z,2.77
2023-05-18T09:08:43.865Z,2.90
2023-05-18T09:11:18.487Z,3.37
2023-05-18T09:13:53.018Z,4.93
2023-05-18T09:16:26.143Z,4.00
2023-05-18T09:18:59.353Z,2.80
2023-05-18T09:21:33.290Z,3.50
2023-05-18T09:24:08.949Z,4.07
2023-05-18T09:26:42.213Z,2.90
2023-05-18T09:29:26.006Z,3.17
2023-05-18T09:31:59.224Z,2.83
2023-05-18T09:34:34.166Z,3.47
2023-05-18T09:37:06.950Z,3.47
2023-05-18T09:39:40.876Z,3.03
2023-05-18T09:42:14.165Z,3.40
2023-05-18T09:44:48.098Z,4.23
2023-05-18T09:47:21.755Z,3.70
2023-05-18T09:49:54.914Z,4.43
2023-05-18T09:52:28.417Z,3.07
2023-05-18T09:55:04.325Z,3.47
2023-05-18T09:57:43.112Z,3.43
2023-05-18T10:00:17.459Z,5.30
2023-05-18T10:02:57.249Z,3.83
2023-05-18T10:05:34.825Z,5.53
2023-05-18T10:08:05.976Z,4.30
2023-05-18T10:10:40.970Z,3.50
2023-05-18T10:13:16.180Z,3.33
2023-05-18T10:16:00.828Z,3.03
2023-05-18T10:18:38.986Z,3.67
2023-05-18T10:21:13.691Z,3.50
2023-05-18T10:23:48.580Z,3.70
2023-05-18T10:26:23.258Z,3.40
2023-05-18T10:28:57.909Z,3.30
2023-05-18T10:31:31.635Z,3.33
2023-05-18T10:34:07.941Z,3.77
2023-05-18T10:36:41.377Z,4.20
2023-05-18T10:39:19.611Z,2.97
2023-05-18T10:41:59.203Z,3.10
2023-05-18T10:44:32.233Z,3.97
2023-05-18T10:47:05.306Z,3.97
2023-05-18T10:49:43.483Z,3.20
2023-05-18T10:52:17.317Z,2.97
2023-05-18T10:54:51.099Z,3.40
2023-05-18T10:57:25.311Z,4.17
2023-05-18T10:59:58.107Z,3.97
2023-05-18T11:02:31.992Z,3.90
2023-05-18T11:05:06.024Z,3.23
2023-05-18T11:07:39.035Z,2.70
2023-05-18T11:10:15.613Z,4.70
2023-05-18T11:12:49.756Z,4.17
2023-05-18T11:15:22.713Z,3.30
2023-05-18T11:17:57.946Z,4.23
2023-05-18T11:20:31.182Z,3.67
2023-05-18T11:23:08.375Z,3.70
2023-05-18T11:25:46.028Z,3.13
2023-05-18T11:28:19.169Z,3.47
2023-05-18T11:30:53.280Z,3.60
2023-05-18T11:33:33.258Z,5.17
2023-05-18T11:36:14.316Z,4.47
2023-05-18T11:39:01.499Z,3.47
2023-05-18T11:41:36.841Z,4.73
2023-05-18T11:44:20.388Z,6.17
2023-05-18T11:47:04.518Z,4.90
2023-05-18T11:49:48.626Z,3.40
2023-05-18T11:52:23.404Z,4.20
2023-05-18T11:55:00.620Z,3.97
2023-05-18T11:57:42.669Z,3.13
2023-05-18T12:00:17.504Z,5.33
2023-05-18T12:02:51.381Z,4.33
2023-05-18T12:05:24.482Z,3.90
2023-05-18T12:08:00.306Z,3.77
2023-05-18T12:10:33.896Z,5.53
2023-05-18T12:13:06.829Z,2.93
2023-05-18T12:15:40.774Z,4.27
2023-05-18T12:18:14.387Z,6.93
2023-05-18T12:20:48.469Z,3.37
2023-05-18T12:23:21.721Z,3.60
2023-05-18T12:25:55.362Z,3.30
2023-05-18T12:28:28.464Z,3.50
2023-05-18T12:31:02.079Z,5.77
2023-05-18T12:33:35.946Z,4.00
2023-05-18T12:36:10.775Z,3.77
2023-05-18T12:38:44.004Z,4.60
2023-05-18T12:41:18.720Z,4.00
2023-05-18T12:43:53.648Z,5.23
2023-05-18T12:46:27.848Z,3.10
2023-05-18T12:49:05.530Z,3.23
2023-05-18T12:51:41.868Z,5.53
2023-05-18T12:54:14.837Z,3.50
2023-05-18T12:57:04.945Z,3.53
2023-05-18T12:59:38.075Z,3.40
2023-05-18T13:02:11.691Z,3.63
2023-05-18T13:04:44.719Z,2.57
2023-05-18T13:07:17.593Z,3.67
2023-05-18T13:09:51.590Z,4.23
2023-05-18T13:12:26.469Z,3.00
2023-05-18T13:14:59.477Z,3.10
2023-05-18T13:17:32.368Z,3.33
2023-05-18T13:20:05.409Z,3.70
2023-05-18T13:22:38.367Z,4.43
2023-05-18T13:25:12.381Z,4.13
2023-05-18T13:27:46.512Z,3.93
2023-05-18T13:30:19.557Z,3.17
2023-05-18T13:32:52.932Z,3.93
2023-05-18T13:35:25.789Z,3.47
2023-05-18T13:37:58.826Z,3.53
2023-05-18T13:40:31.869Z,3.90
2023-05-18T13:43:04.881Z,3.70
2023-05-18T13:45:39.067Z,4.00
2023-05-18T13:48:12.713Z,3.80
2023-05-18T13:50:45.819Z,3.50
2023-05-18T13:53:18.733Z,3.57
2023-05-18T13:55:51.628Z,3.50
2023-05-18T13:58:29.708Z,2.80
2023-05-18T14:01:03.907Z,2.93
2023-05-18T14:03:38.160Z,3.33
2023-05-18T14:06:11.427Z,3.53
2023-05-18T14:08:48.310Z,3.70
2023-05-18T14:11:21.247Z,3.00
2023-05-18T14:13:54.129Z,3.87
2023-05-18T14:16:27.379Z,2.63
2023-05-18T14:19:00.326Z,2.47
2023-05-18T14:21:33.304Z,2.83
2023-05-18T14:24:07.553Z,2.70
2023-05-18T14:26:40.967Z,3.30
2023-05-18T14:29:13.743Z,2.67
2023-05-18T14:31:46.673Z,3.30
2023-05-18T14:34:19.422Z,2.67
2023-05-18T14:36:52.263Z,3.43
2023-05-18T14:39:29.444Z,3.37
2023-05-18T14:42:02.302Z,3.40
2023-05-18T14:44:35.691Z,4.57
2023-05-18T14:47:09.204Z,2.63
2023-05-18T14:49:42.478Z,3.70
2023-05-18T14:52:15.359Z,4.13
2023-05-18T14:54:49.651Z,3.20
2023-05-18T14:57:23.353Z,4.37
2023-05-18T14:59:56.857Z,3.80
2023-05-18T15:02:29.774Z,2.90
2023-05-18T15:05:02.537Z,2.93
2023-05-18T15:07:35.699Z,4.80
2023-05-18T15:10:09.055Z,3.33
2023-05-18T15:12:42.155Z,2.87
2023-05-18T15:15:15.805Z,2.50
2023-05-18T15:17:48.687Z,1.90
2023-05-18T15:20:21.823Z,2.90
2023-05-18T15:22:54.816Z,2.50
2023-05-18T15:25:27.652Z,2.77
2023-05-18T15:28:00.570Z,3.23
2023-05-18T15:30:34.310Z,2.70
2023-05-18T15:33:08.160Z,3.10
2023-05-18T15:35:41.545Z,3.23
2023-05-18T15:38:14.716Z,4.00
2023-05-18T15:40:48.953Z,4.00
2023-05-18T15:43:23.332Z,3.27
2023-05-18T15:45:56.710Z,4.60
2023-05-18T15:48:31.270Z,5.00
2023-05-18T15:51:04.266Z,4.87
2023-05-18T15:53:41.258Z,6.77
2023-05-18T15:56:16.260Z,5.23
2023-05-18T15:58:48.623Z,6.50
2023-05-18T16:01:21.862Z,4.30
2023-05-18T16:03:54.853Z,3.93
2023-05-18T16:06:27.958Z,4.63
2023-05-18T16:09:00.871Z,3.17
2023-05-18T16:11:33.868Z,3.80
2023-05-18T16:14:07.371Z,3.70
2023-05-18T16:16:40.263Z,6.50
2023-05-18T16:19:13.461Z,6.87
2023-05-18T16:21:46.466Z,5.77
2023-05-18T16:24:19.253Z,5.50
2023-05-18T16:26:52.179Z,6.20
2023-05-18T16:29:25.180Z,3.80
2023-05-18T16:31:58.416Z,6.17
2023-05-18T16:34:31.379Z,5.60
2023-05-18T16:37:04.258Z,4.97
2023-05-18T16:39:37.335Z,5.30
2023-05-18T16:42:11.314Z,5.30
2023-05-18T16:44:44.379Z,3.77
2023-05-18T16:47:18.604Z,4.87
2023-05-18T16:49:52.405Z,7.30
2023-05-18T16:52:26.510Z,5.23
2023-05-18T16:54:59.533Z,4.50
2023-05-18T16:57:32.886Z,4.70
2023-05-18T17:00:06.903Z,6.20
2023-05-18T17:02:41.682Z,4.67
2023-05-18T17:05:14.992Z,5.03
2023-05-18T17:07:48.419Z,4.83
2023-05-18T17:10:24.834Z,4.73
2023-05-18T17:12:58.638Z,6.13
2023-05-18T17:15:32.738Z,5.47
2023-05-18T17:18:06.174Z,5.33
2023-05-18T17:20:39.164Z,5.43
2023-05-18T17:23:13.193Z,4.60
2023-05-18T17:25:46.304Z,4.33
2023-05-18T17:28:20.256Z,5.33
2023-05-18T17:30:53.270Z,4.60
2023-05-18T17:33:26.129Z,5.00
2023-05-18T17:36:02.228Z,4.07
2023-05-18T17:38:35.152Z,5.47
2023-05-18T17:41:08.078Z,4.70
2023-05-18T17:43:41.054Z,4.23
2023-05-18T17:46:14.142Z,4.70
2023-05-18T17:48:47.353Z,5.67
2023-05-18T17:51:20.435Z,3.80
2023-05-18T17:53:53.422Z,3.40
2023-05-18T17:56:27.649Z,4.30
2023-05-18T17:59:01.831Z,3.60
2023-05-18T18:01:35.504Z,3.17
2023-05-18T18:04:08.418Z,4.03
2023-05-18T18:06:41.364Z,3.70
2023-05-18T18:09:15.500Z,4.20
2023-05-18T18:11:48.480Z,4.50
2023-05-18T18:14:21.474Z,4.23
2023-05-18T18:16:54.626Z,5.70
2023-05-18T18:19:45.235Z,4.27
2023-05-18T18:22:18.423Z,4.23
2023-05-18T18:24:51.604Z,3.97
2023-05-18T18:27:24.520Z,5.17
2023-05-18T18:29:57.320Z,5.67
2023-05-18T18:32:30.181Z,5.70
2023-05-18T18:35:03.578Z,5.70
2023-05-18T18:37:36.694Z,4.43
2023-05-18T18:40:11.252Z,3.80
2023-05-18T18:42:44.681Z,6.90
2023-05-18T18:45:17.570Z,4.67
2023-05-18T18:47:50.608Z,5.93
2023-05-18T18:50:23.627Z,4.57
2023-05-18T18:53:01.498Z,4.50
2023-05-18T18:55:34.730Z,4.20
2023-05-18T18:58:07.676Z,4.07
2023-05-18T19:00:40.696Z,4.87
2023-05-18T19:03:14.945Z,5.40
2023-05-18T19:05:47.889Z,4.30
2023-05-18T19:08:20.952Z,4.30
2023-05-18T19:10:53.849Z,4.13
2023-05-18T19:13:26.885Z,3.53
2023-05-18T19:16:00.205Z,5.73
2023-05-18T19:18:33.056Z,4.73
2023-05-18T19:21:06.129Z,4.00
2023-05-18T19:23:38.783Z,3.63
2023-05-18T19:26:11.775Z,1.83
2023-05-18T19:28:44.597Z,1.83
2023-05-18T19:31:17.930Z,1.30
2023-05-18T19:33:50.794Z,1.10
2023-05-18T19:36:23.875Z,1.37
2023-05-18T19:38:57.699Z,1.50
2023-05-18T19:41:30.418Z,1.23
2023-05-18T19:44:03.112Z,1.23
2023-05-18T19:46:36.090Z,1.50
2023-05-18T19:49:09.203Z,2.00
2023-05-18T19:51:43.057Z,3.03
2023-05-18T19:54:16.176Z,1.50
2023-05-18T19:56:49.476Z,2.33
2023-05-18T19:59:22.493Z,3.23
2023-05-18T20:01:56.920Z,2.53
2023-05-18T20:04:30.457Z,2.40
2023-05-18T20:07:03.545Z,3.90
2023-05-18T20:09:37.836Z,3.40
2023-05-18T20:12:10.933Z,2.60
2023-05-18T20:14:45.094Z,2.93
2023-05-18T20:17:18.652Z,3.80
2023-05-18T20:19:55.306Z,4.00
2023-05-18T20:22:28.622Z,5.57
2023-05-18T20:25:02.773Z,4.30
2023-05-18T20:27:35.925Z,2.90
2023-05-18T20:30:09.465Z,3.60
2023-05-18T20:32:42.542Z,3.90
2023-05-18T20:35:16.613Z,4.40
2023-05-18T20:37:49.505Z,3.67
2023-05-18T20:40:22.562Z,3.27
2023-05-18T20:42:58.162Z,3.50
2023-05-18T20:45:34.352Z,3.90
2023-05-18T20:48:07.697Z,4.23
2023-05-18T20:50:44.021Z,4.90
2023-05-18T20:53:17.763Z,3.50
2023-05-18T20:55:51.608Z,4.63
2023-05-18T20:58:24.778Z,5.03
2023-05-18T21:01:00.800Z,3.83
2023-05-18T21:03:33.845Z,5.00
2023-05-18T21:06:07.073Z,4.20
2023-05-18T21:08:40.034Z,5.60
2023-05-18T21:11:17.387Z,4.80
2023-05-18T21:13:50.530Z,4.10
2023-05-18T21:16:23.375Z,4.20
2023-05-18T21:18:56.489Z,5.23
2023-05-18T21:21:29.641Z,7.43
2023-05-18T21:24:02.790Z,5.40
2023-05-18T21:26:35.832Z,6.27
2023-05-18T21:29:08.718Z,5.57
2023-05-18T21:31:41.766Z,5.97
2023-05-18T21:34:44.180Z,6.90
2023-05-18T21:37:17.278Z,5.87
2023-05-18T21:39:50.142Z,4.93
2023-05-18T21:42:23.500Z,6.53
2023-05-18T21:44:56.943Z,6.30
2023-05-18T21:47:29.933Z,5.47
2023-05-18T21:50:02.832Z,4.97
2023-05-18T21:52:35.745Z,5.30
2023-05-18T21:58:11.378Z,6.90
2023-05-18T22:00:44.594Z,5.37
2023-05-18T22:03:17.730Z,11.40
2023-05-18T22:05:50.883Z,6.00
2023-05-18T22:08:23.737Z,7.07
2023-05-18T22:10:56.711Z,5.40
2023-05-18T22:13:29.616Z,7.33
2023-05-18T22:16:02.699Z,6.30
2023-05-18T22:18:35.779Z,6.87
2023-05-18T22:21:08.795Z,5.60
2023-05-18T22:23:41.762Z,7.20
2023-05-18T22:26:15.575Z,6.10
2023-05-18T22:28:48.839Z,5.57
2023-05-18T22:31:21.623Z,7.20
2023-05-18T22:33:55.337Z,7.80
2023-05-18T22:36:29.267Z,6.43
2023-05-18T22:39:02.146Z,6.70
2023-05-18T22:41:34.975Z,7.60
2023-05-18T22:44:08.164Z,5.47
2023-05-18T22:46:41.190Z,7.60
2023-05-18T22:49:14.498Z,6.23
2023-05-18T22:51:48.048Z,6.33
2023-05-18T22:54:21.564Z,5.77
2023-05-18T22:56:54.689Z,7.47
2023-05-18T22:59:27.678Z,6.73
2023-05-18T23:02:00.745Z,5.37
2023-05-18T23:04:33.557Z,7.03
2023-05-18T23:07:06.433Z,5.90
2023-05-18T23:09:40.663Z,5.70
2023-05-18T23:12:14.486Z,6.77
2023-05-18T23:14:47.251Z,5.13
2023-05-18T23:17:20.728Z,6.67
2023-05-18T23:19:55.601Z,6.30
2023-05-18T23:22:28.773Z,6.73
2023-05-18T23:25:01.684Z,6.03
2023-05-18T23:27:35.155Z,5.43
2023-05-18T23:30:08.228Z,6.23
2023-05-18T23:32:41.809Z,6.30
2023-05-18T23:35:16.036Z,6.30
2023-05-18T23:37:50.841Z,7.27
2023-05-18T23:40:24.889Z,5.80
2023-05-18T23:43:02.215Z,8.00
2023-05-18T23:45:35.914Z,6.70
2023-05-18T23:48:09.676Z,5.67
2023-05-18T23:50:44.766Z,6.63
2023-05-18T23:53:18.920Z,5.20
2023-05-18T23:55:52.996Z,5.50
2023-05-18T23:58:28.758Z,6.03
